sensor_id;sensor_type;location;lat;lon;timestamp;P1;durP1;ratioP1;P2;durP2;ratioP2
13026;SDS011;6580;42.680;23.324;2023-02-08T00:00:14;19.73;;;12.10;;
13026;SDS011;6580;42.680;23.324;2023-02-08T00:02:41;17.83;;;12.17;;
13026;SDS011;6580;42.680;23.324;2023-02-08T00:05:08;19.23;;;12.70;;
13026;SDS011;6580;42.680;23.324;2023-02-08T00:07:36;19.70;;;12.27;;
13026;SDS011;6580;42.680;23.324;2023-02-08T00:10:03;18.53;;;12.37;;
13026;SDS011;6580;42.680;23.324;2023-02-08T00:12:32;17.53;;;11.63;;
13026;SDS011;6580;42.680;23.324;2023-02-08T00:14:59;17.50;;;12.43;;
13026;SDS011;6580;42.680;23.324;2023-02-08T00:17:26;16.53;;;11.60;;
13026;SDS011;6580;42.680;23.324;2023-02-08T00:19:53;16.37;;;11.20;;
13026;SDS011;6580;42.680;23.324;2023-02-08T00:22:20;16.47;;;11.80;;
13026;SDS011;6580;42.680;23.324;2023-02-08T00:24:49;18.67;;;11.83;;
13026;SDS011;6580;42.680;23.324;2023-02-08T00:27:16;17.93;;;11.70;;
13026;SDS011;6580;42.680;23.324;2023-02-08T00:29:43;16.20;;;11.73;;
13026;SDS011;6580;42.680;23.324;2023-02-08T00:32:10;14.70;;;11.33;;
13026;SDS011;6580;42.680;23.324;2023-02-08T00:34:37;16.03;;;12.17;;
13026;SDS011;6580;42.680;23.324;2023-02-08T00:37:04;16.57;;;11.27;;
13026;SDS011;6580;42.680;23.324;2023-02-08T00:39:31;17.03;;;11.97;;
13026;SDS011;6580;42.680;23.324;2023-02-08T00:41:59;15.63;;;11.33;;
13026;SDS011;6580;42.680;23.324;2023-02-08T00:44:26;18.83;;;12.47;;
13026;SDS011;6580;42.680;23.324;2023-02-08T00:46:53;18.60;;;12.20;;
13026;SDS011;6580;42.680;23.324;2023-02-08T00:49:20;18.50;;;12.70;;
13026;SDS011;6580;42.680;23.324;2023-02-08T00:51:46;16.07;;;11.57;;
13026;SDS011;6580;42.680;23.324;2023-02-08T00:54:14;18.03;;;12.80;;
13026;SDS011;6580;42.680;23.324;2023-02-08T00:56:41;17.07;;;11.60;;
13026;SDS011;6580;42.680;23.324;2023-02-08T00:59:09;16.30;;;11.87;;
13026;SDS011;6580;42.680;23.324;2023-02-08T01:01:37;19.23;;;13.17;;
13026;SDS011;6580;42.680;23.324;2023-02-08T01:04:04;18.57;;;12.10;;
13026;SDS011;6580;42.680;23.324;2023-02-08T01:06:32;17.67;;;13.07;;
13026;SDS011;6580;42.680;23.324;2023-02-08T01:08:59;16.60;;;12.50;;
13026;SDS011;6580;42.680;23.324;2023-02-08T01:11:26;16.83;;;12.10;;
13026;SDS011;6580;42.680;23.324;2023-02-08T01:13:53;17.87;;;12.33;;
13026;SDS011;6580;42.680;23.324;2023-02-08T01:16:24;20.50;;;13.93;;
13026;SDS011;6580;42.680;23.324;2023-02-08T01:18:54;18.60;;;12.90;;
13026;SDS011;6580;42.680;23.324;2023-02-08T01:21:22;17.43;;;12.97;;
13026;SDS011;6580;42.680;23.324;2023-02-08T01:23:50;19.07;;;12.57;;
13026;SDS011;6580;42.680;23.324;2023-02-08T01:26:18;20.07;;;13.47;;
13026;SDS011;6580;42.680;23.324;2023-02-08T01:28:46;19.67;;;13.33;;
13026;SDS011;6580;42.680;23.324;2023-02-08T01:31:14;17.10;;;11.73;;
13026;SDS011;6580;42.680;23.324;2023-02-08T01:33:44;21.43;;;13.47;;
13026;SDS011;6580;42.680;23.324;2023-02-08T01:36:11;21.27;;;12.70;;
13026;SDS011;6580;42.680;23.324;2023-02-08T01:38:38;22.13;;;14.13;;
13026;SDS011;6580;42.680;23.324;2023-02-08T01:41:06;19.33;;;13.30;;
13026;SDS011;6580;42.680;23.324;2023-02-08T01:46:29;18.93;;;13.07;;
13026;SDS011;6580;42.680;23.324;2023-02-08T01:48:59;18.87;;;13.07;;
13026;SDS011;6580;42.680;23.324;2023-02-08T01:51:30;17.23;;;12.07;;
13026;SDS011;6580;42.680;23.324;2023-02-08T01:54:01;19.53;;;13.87;;
13026;SDS011;6580;42.680;23.324;2023-02-08T01:56:32;18.17;;;12.73;;
13026;SDS011;6580;42.680;23.324;2023-02-08T01:59:02;21.37;;;13.43;;
13026;SDS011;6580;42.680;23.324;2023-02-08T02:01:34;19.27;;;13.03;;
13026;SDS011;6580;42.680;23.324;2023-02-08T02:04:03;19.17;;;14.07;;
13026;SDS011;6580;42.680;23.324;2023-02-08T02:06:32;19.33;;;13.67;;
13026;SDS011;6580;42.680;23.324;2023-02-08T02:09:04;19.53;;;13.47;;
13026;SDS011;6580;42.680;23.324;2023-02-08T02:11:37;18.90;;;13.50;;
13026;SDS011;6580;42.680;23.324;2023-02-08T02:14:04;22.50;;;14.17;;
13026;SDS011;6580;42.680;23.324;2023-02-08T02:16:34;20.03;;;13.53;;
13026;SDS011;6580;42.680;23.324;2023-02-08T02:19:02;20.97;;;13.43;;
13026;SDS011;6580;42.680;23.324;2023-02-08T02:21:41;18.20;;;12.70;;
13026;SDS011;6580;42.680;23.324;2023-02-08T02:24:29;20.57;;;13.23;;
13026;SDS011;6580;42.680;23.324;2023-02-08T02:27:29;19.13;;;13.73;;
13026;SDS011;6580;42.680;23.324;2023-02-08T02:33:15;21.57;;;13.80;;
13026;SDS011;6580;42.680;23.324;2023-02-08T02:36:01;21.47;;;14.30;;
13026;SDS011;6580;42.680;23.324;2023-02-08T02:38:37;24.33;;;14.93;;
13026;SDS011;6580;42.680;23.324;2023-02-08T02:41:16;21.50;;;15.27;;
13026;SDS011;6580;42.680;23.324;2023-02-08T02:44:06;24.00;;;15.30;;
13026;SDS011;6580;42.680;23.324;2023-02-08T02:46:40;22.37;;;14.33;;
13026;SDS011;6580;42.680;23.324;2023-02-08T02:49:14;21.20;;;14.27;;
13026;SDS011;6580;42.680;23.324;2023-02-08T02:51:47;22.50;;;14.70;;
13026;SDS011;6580;42.680;23.324;2023-02-08T02:54:22;21.37;;;14.63;;
13026;SDS011;6580;42.680;23.324;2023-02-08T02:56:54;22.30;;;14.37;;
13026;SDS011;6580;42.680;23.324;2023-02-08T02:59:25;21.73;;;14.23;;
13026;SDS011;6580;42.680;23.324;2023-02-08T03:01:53;20.30;;;14.20;;
13026;SDS011;6580;42.680;23.324;2023-02-08T03:07:16;21.03;;;13.53;;
13026;SDS011;6580;42.680;23.324;2023-02-08T03:09:51;20.57;;;14.20;;
13026;SDS011;6580;42.680;23.324;2023-02-08T03:12:33;21.60;;;14.07;;
13026;SDS011;6580;42.680;23.324;2023-02-08T03:15:08;20.70;;;14.73;;
13026;SDS011;6580;42.680;23.324;2023-02-08T03:17:49;23.80;;;16.03;;
13026;SDS011;6580;42.680;23.324;2023-02-08T03:20:28;28.60;;;18.43;;
13026;SDS011;6580;42.680;23.324;2023-02-08T03:22:57;26.53;;;17.33;;
13026;SDS011;6580;42.680;23.324;2023-02-08T03:25:33;26.27;;;16.43;;
13026;SDS011;6580;42.680;23.324;2023-02-08T03:28:14;24.53;;;15.53;;
13026;SDS011;6580;42.680;23.324;2023-02-08T03:30:58;28.50;;;17.40;;
13026;SDS011;6580;42.680;23.324;2023-02-08T03:33:32;26.67;;;17.60;;
13026;SDS011;6580;42.680;23.324;2023-02-08T03:36:05;22.87;;;15.53;;
13026;SDS011;6580;42.680;23.324;2023-02-08T03:38:40;25.47;;;16.97;;
13026;SDS011;6580;42.680;23.324;2023-02-08T03:41:10;24.60;;;16.77;;
13026;SDS011;6580;42.680;23.324;2023-02-08T03:43:40;25.80;;;17.17;;
13026;SDS011;6580;42.680;23.324;2023-02-08T03:46:12;27.27;;;15.73;;
13026;SDS011;6580;42.680;23.324;2023-02-08T03:48:44;28.70;;;18.80;;
13026;SDS011;6580;42.680;23.324;2023-02-08T03:51:16;26.63;;;17.80;;
13026;SDS011;6580;42.680;23.324;2023-02-08T03:53:45;28.00;;;17.63;;
13026;SDS011;6580;42.680;23.324;2023-02-08T03:56:13;24.27;;;17.30;;
13026;SDS011;6580;42.680;23.324;2023-02-08T03:58:45;31.00;;;17.47;;
13026;SDS011;6580;42.680;23.324;2023-02-08T04:01:16;28.57;;;17.77;;
13026;SDS011;6580;42.680;23.324;2023-02-08T04:03:49;28.00;;;17.07;;
13026;SDS011;6580;42.680;23.324;2023-02-08T04:06:19;24.80;;;16.13;;
13026;SDS011;6580;42.680;23.324;2023-02-08T04:08:47;25.30;;;16.87;;
13026;SDS011;6580;42.680;23.324;2023-02-08T04:11:14;27.67;;;17.40;;
13026;SDS011;6580;42.680;23.324;2023-02-08T04:13:41;27.23;;;17.37;;
13026;SDS011;6580;42.680;23.324;2023-02-08T04:16:08;27.03;;;17.10;;
13026;SDS011;6580;42.680;23.324;2023-02-08T04:18:37;28.67;;;16.57;;
13026;SDS011;6580;42.680;23.324;2023-02-08T04:21:03;24.83;;;17.83;;
13026;SDS011;6580;42.680;23.324;2023-02-08T04:23:32;25.53;;;17.23;;
13026;SDS011;6580;42.680;23.324;2023-02-08T04:25:59;26.53;;;17.30;;
13026;SDS011;6580;42.680;23.324;2023-02-08T04:28:25;24.30;;;16.23;;
13026;SDS011;6580;42.680;23.324;2023-02-08T04:30:53;26.03;;;16.93;;
13026;SDS011;6580;42.680;23.324;2023-02-08T04:33:20;24.30;;;16.53;;
13026;SDS011;6580;42.680;23.324;2023-02-08T04:35:47;26.87;;;16.80;;
13026;SDS011;6580;42.680;23.324;2023-02-08T04:38:14;26.93;;;17.07;;
13026;SDS011;6580;42.680;23.324;2023-02-08T04:40:42;23.70;;;16.00;;
13026;SDS011;6580;42.680;23.324;2023-02-08T04:43:09;22.80;;;16.23;;
13026;SDS011;6580;42.680;23.324;2023-02-08T04:45:35;23.93;;;16.77;;
13026;SDS011;6580;42.680;23.324;2023-02-08T04:48:02;28.50;;;18.80;;
13026;SDS011;6580;42.680;23.324;2023-02-08T04:50:31;22.40;;;15.73;;
13026;SDS011;6580;42.680;23.324;2023-02-08T04:52:58;28.10;;;16.90;;
13026;SDS011;6580;42.680;23.324;2023-02-08T04:55:25;42.77;;;25.13;;
13026;SDS011;6580;42.680;23.324;2023-02-08T04:57:53;28.80;;;19.73;;
13026;SDS011;6580;42.680;23.324;2023-02-08T05:00:20;26.03;;;18.53;;
13026;SDS011;6580;42.680;23.324;2023-02-08T05:02:49;28.37;;;15.87;;
13026;SDS011;6580;42.680;23.324;2023-02-08T05:05:18;26.17;;;16.67;;
13026;SDS011;6580;42.680;23.324;2023-02-08T05:07:44;28.43;;;18.27;;
13026;SDS011;6580;42.680;23.324;2023-02-08T05:10:11;26.60;;;17.43;;
13026;SDS011;6580;42.680;23.324;2023-02-08T05:12:38;22.97;;;15.83;;
13026;SDS011;6580;42.680;23.324;2023-02-08T05:15:06;28.23;;;16.73;;
13026;SDS011;6580;42.680;23.324;2023-02-08T05:17:34;21.03;;;15.93;;
13026;SDS011;6580;42.680;23.324;2023-02-08T05:20:01;24.70;;;15.10;;
13026;SDS011;6580;42.680;23.324;2023-02-08T05:22:28;26.57;;;15.73;;
13026;SDS011;6580;42.680;23.324;2023-02-08T05:24:54;23.43;;;15.07;;
13026;SDS011;6580;42.680;23.324;2023-02-08T05:27:21;31.83;;;17.90;;
13026;SDS011;6580;42.680;23.324;2023-02-08T05:29:48;28.40;;;17.77;;
13026;SDS011;6580;42.680;23.324;2023-02-08T05:32:16;23.73;;;15.73;;
13026;SDS011;6580;42.680;23.324;2023-02-08T05:34:45;24.20;;;16.03;;
13026;SDS011;6580;42.680;23.324;2023-02-08T05:37:12;22.37;;;15.17;;
13026;SDS011;6580;42.680;23.324;2023-02-08T05:39:39;23.47;;;14.53;;
13026;SDS011;6580;42.680;23.324;2023-02-08T05:42:06;22.00;;;15.77;;
13026;SDS011;6580;42.680;23.324;2023-02-08T05:44:33;26.20;;;16.77;;
13026;SDS011;6580;42.680;23.324;2023-02-08T05:46:59;24.77;;;16.33;;
13026;SDS011;6580;42.680;23.324;2023-02-08T05:49:29;25.50;;;15.60;;
13026;SDS011;6580;42.680;23.324;2023-02-08T05:51:56;25.70;;;16.33;;
13026;SDS011;6580;42.680;23.324;2023-02-08T05:54:22;23.97;;;16.53;;
13026;SDS011;6580;42.680;23.324;2023-02-08T05:56:49;24.07;;;16.77;;
13026;SDS011;6580;42.680;23.324;2023-02-08T05:59:16;25.07;;;16.23;;
13026;SDS011;6580;42.680;23.324;2023-02-08T06:01:43;26.73;;;17.60;;
13026;SDS011;6580;42.680;23.324;2023-02-08T06:04:10;31.60;;;18.83;;
13026;SDS011;6580;42.680;23.324;2023-02-08T06:06:38;24.63;;;16.63;;
13026;SDS011;6580;42.680;23.324;2023-02-08T06:09:05;26.63;;;17.50;;
13026;SDS011;6580;42.680;23.324;2023-02-08T06:11:32;29.23;;;17.40;;
13026;SDS011;6580;42.680;23.324;2023-02-08T06:14:00;24.90;;;17.80;;
13026;SDS011;6580;42.680;23.324;2023-02-08T06:16:27;28.17;;;17.60;;
13026;SDS011;6580;42.680;23.324;2023-02-08T06:18:54;23.63;;;16.77;;
13026;SDS011;6580;42.680;23.324;2023-02-08T06:21:21;26.33;;;15.90;;
13026;SDS011;6580;42.680;23.324;2023-02-08T06:23:49;19.80;;;14.27;;
13026;SDS011;6580;42.680;23.324;2023-02-08T06:26:15;20.67;;;14.77;;
13026;SDS011;6580;42.680;23.324;2023-02-08T06:28:42;21.10;;;14.10;;
13026;SDS011;6580;42.680;23.324;2023-02-08T06:31:09;22.93;;;14.53;;
13026;SDS011;6580;42.680;23.324;2023-02-08T06:33:36;23.37;;;16.00;;
13026;SDS011;6580;42.680;23.324;2023-02-08T06:36:02;23.17;;;15.17;;
13026;SDS011;6580;42.680;23.324;2023-02-08T06:38:29;19.90;;;14.20;;
13026;SDS011;6580;42.680;23.324;2023-02-08T06:40:57;21.17;;;13.90;;
13026;SDS011;6580;42.680;23.324;2023-02-08T06:43:24;21.57;;;14.10;;
13026;SDS011;6580;42.680;23.324;2023-02-08T06:45:51;20.73;;;13.30;;
13026;SDS011;6580;42.680;23.324;2023-02-08T06:48:18;19.90;;;13.73;;
13026;SDS011;6580;42.680;23.324;2023-02-08T06:50:44;22.13;;;13.30;;
13026;SDS011;6580;42.680;23.324;2023-02-08T06:53:11;17.43;;;12.97;;
13026;SDS011;6580;42.680;23.324;2023-02-08T06:55:39;20.50;;;13.90;;
13026;SDS011;6580;42.680;23.324;2023-02-08T06:58:07;23.43;;;15.30;;
13026;SDS011;6580;42.680;23.324;2023-02-08T07:00:33;22.60;;;15.87;;
13026;SDS011;6580;42.680;23.324;2023-02-08T07:03:00;24.53;;;16.63;;
13026;SDS011;6580;42.680;23.324;2023-02-08T07:05:27;25.87;;;17.77;;
13026;SDS011;6580;42.680;23.324;2023-02-08T07:07:53;25.17;;;17.70;;
13026;SDS011;6580;42.680;23.324;2023-02-08T07:10:22;26.70;;;18.23;;
13026;SDS011;6580;42.680;23.324;2023-02-08T07:12:48;29.73;;;17.10;;
13026;SDS011;6580;42.680;23.324;2023-02-08T07:15:17;22.87;;;15.10;;
13026;SDS011;6580;42.680;23.324;2023-02-08T07:17:43;24.50;;;16.30;;
13026;SDS011;6580;42.680;23.324;2023-02-08T07:20:10;19.43;;;14.10;;
13026;SDS011;6580;42.680;23.324;2023-02-08T07:22:37;21.60;;;14.23;;
13026;SDS011;6580;42.680;23.324;2023-02-08T07:25:04;21.40;;;14.17;;
13026;SDS011;6580;42.680;23.324;2023-02-08T07:27:31;23.27;;;14.00;;
13026;SDS011;6580;42.680;23.324;2023-02-08T07:29:58;22.30;;;15.53;;
13026;SDS011;6580;42.680;23.324;2023-02-08T07:32:27;22.67;;;16.07;;
13026;SDS011;6580;42.680;23.324;2023-02-08T07:34:53;23.03;;;14.73;;
13026;SDS011;6580;42.680;23.324;2023-02-08T07:37:20;19.93;;;14.93;;
13026;SDS011;6580;42.680;23.324;2023-02-08T07:39:47;20.93;;;14.17;;
13026;SDS011;6580;42.680;23.324;2023-02-08T07:42:13;25.57;;;15.27;;
13026;SDS011;6580;42.680;23.324;2023-02-08T07:44:40;25.20;;;16.70;;
13026;SDS011;6580;42.680;23.324;2023-02-08T07:47:07;24.27;;;15.63;;
13026;SDS011;6580;42.680;23.324;2023-02-08T07:49:35;23.20;;;15.87;;
13026;SDS011;6580;42.680;23.324;2023-02-08T07:52:02;29.03;;;17.10;;
13026;SDS011;6580;42.680;23.324;2023-02-08T07:54:28;37.77;;;20.60;;
13026;SDS011;6580;42.680;23.324;2023-02-08T07:56:55;24.33;;;16.37;;
13026;SDS011;6580;42.680;23.324;2023-02-08T07:59:22;26.47;;;15.70;;
13026;SDS011;6580;42.680;23.324;2023-02-08T08:01:49;25.40;;;16.90;;
13026;SDS011;6580;42.680;23.324;2023-02-08T08:04:16;26.63;;;16.73;;
13026;SDS011;6580;42.680;23.324;2023-02-08T08:06:45;23.67;;;16.07;;
13026;SDS011;6580;42.680;23.324;2023-02-08T08:09:13;23.97;;;16.57;;
13026;SDS011;6580;42.680;23.324;2023-02-08T08:11:40;27.87;;;17.60;;
13026;SDS011;6580;42.680;23.324;2023-02-08T08:14:07;26.73;;;17.00;;
13026;SDS011;6580;42.680;23.324;2023-02-08T08:16:34;26.50;;;17.17;;
13026;SDS011;6580;42.680;23.324;2023-02-08T08:19:00;23.00;;;16.17;;
13026;SDS011;6580;42.680;23.324;2023-02-08T08:21:27;23.87;;;16.67;;
13026;SDS011;6580;42.680;23.324;2023-02-08T08:23:55;22.00;;;16.17;;
13026;SDS011;6580;42.680;23.324;2023-02-08T08:26:23;25.53;;;16.40;;
13026;SDS011;6580;42.680;23.324;2023-02-08T08:28:50;23.63;;;15.47;;
13026;SDS011;6580;42.680;23.324;2023-02-08T08:31:17;26.03;;;17.07;;
13026;SDS011;6580;42.680;23.324;2023-02-08T08:33:47;22.37;;;16.30;;
13026;SDS011;6580;42.680;23.324;2023-02-08T08:36:14;22.60;;;15.93;;
13026;SDS011;6580;42.680;23.324;2023-02-08T08:38:41;22.27;;;15.23;;
13026;SDS011;6580;42.680;23.324;2023-02-08T08:41:10;23.47;;;15.93;;
13026;SDS011;6580;42.680;23.324;2023-02-08T08:43:41;25.07;;;16.33;;
13026;SDS011;6580;42.680;23.324;2023-02-08T08:46:08;25.23;;;16.30;;
13026;SDS011;6580;42.680;23.324;2023-02-08T08:48:35;27.33;;;17.07;;
13026;SDS011;6580;42.680;23.324;2023-02-08T08:51:03;23.00;;;15.10;;
13026;SDS011;6580;42.680;23.324;2023-02-08T08:53:30;22.80;;;15.13;;
13026;SDS011;6580;42.680;23.324;2023-02-08T08:55:57;20.93;;;14.73;;
13026;SDS011;6580;42.680;23.324;2023-02-08T08:58:25;24.27;;;16.13;;
13026;SDS011;6580;42.680;23.324;2023-02-08T09:00:52;21.60;;;15.37;;
13026;SDS011;6580;42.680;23.324;2023-02-08T09:03:21;20.70;;;13.57;;
13026;SDS011;6580;42.680;23.324;2023-02-08T09:05:47;19.53;;;14.77;;
13026;SDS011;6580;42.680;23.324;2023-02-08T09:08:14;23.40;;;15.27;;
13026;SDS011;6580;42.680;23.324;2023-02-08T09:10:41;20.00;;;14.30;;
13026;SDS011;6580;42.680;23.324;2023-02-08T09:13:08;22.07;;;14.30;;
13026;SDS011;6580;42.680;23.324;2023-02-08T09:15:38;20.43;;;14.20;;
13026;SDS011;6580;42.680;23.324;2023-02-08T09:18:05;15.00;;;11.77;;
13026;SDS011;6580;42.680;23.324;2023-02-08T09:20:32;16.47;;;11.67;;
13026;SDS011;6580;42.680;23.324;2023-02-08T09:22:58;17.47;;;12.70;;
13026;SDS011;6580;42.680;23.324;2023-02-08T09:25:25;17.27;;;12.37;;
13026;SDS011;6580;42.680;23.324;2023-02-08T09:27:52;16.20;;;12.27;;
13026;SDS011;6580;42.680;23.324;2023-02-08T09:30:19;17.13;;;12.53;;
13026;SDS011;6580;42.680;23.324;2023-02-08T09:32:47;18.63;;;13.47;;
13026;SDS011;6580;42.680;23.324;2023-02-08T09:35:14;17.07;;;12.13;;
13026;SDS011;6580;42.680;23.324;2023-02-08T09:37:41;15.50;;;10.83;;
13026;SDS011;6580;42.680;23.324;2023-02-08T09:40:12;12.80;;;10.40;;
13026;SDS011;6580;42.680;23.324;2023-02-08T09:42:48;15.37;;;11.83;;
13026;SDS011;6580;42.680;23.324;2023-02-08T09:45:25;19.60;;;12.70;;
13026;SDS011;6580;42.680;23.324;2023-02-08T09:47:59;16.27;;;12.53;;
13026;SDS011;6580;42.680;23.324;2023-02-08T09:50:33;12.40;;;9.70;;
13026;SDS011;6580;42.680;23.324;2023-02-08T09:53:06;11.83;;;9.40;;
13026;SDS011;6580;42.680;23.324;2023-02-08T09:55:39;16.17;;;11.23;;
13026;SDS011;6580;42.680;23.324;2023-02-08T09:58:14;12.23;;;9.67;;
13026;SDS011;6580;42.680;23.324;2023-02-08T10:00:48;13.03;;;10.00;;
13026;SDS011;6580;42.680;23.324;2023-02-08T10:03:20;12.23;;;10.00;;
13026;SDS011;6580;42.680;23.324;2023-02-08T10:05:53;13.93;;;10.17;;
13026;SDS011;6580;42.680;23.324;2023-02-08T10:08:20;13.17;;;10.30;;
13026;SDS011;6580;42.680;23.324;2023-02-08T10:10:49;11.97;;;9.43;;
13026;SDS011;6580;42.680;23.324;2023-02-08T10:13:32;12.07;;;8.90;;
13026;SDS011;6580;42.680;23.324;2023-02-08T10:16:12;13.90;;;10.43;;
13026;SDS011;6580;42.680;23.324;2023-02-08T10:18:48;13.53;;;10.70;;
13026;SDS011;6580;42.680;23.324;2023-02-08T10:21:33;14.60;;;11.27;;
13026;SDS011;6580;42.680;23.324;2023-02-08T10:24:18;12.47;;;9.43;;
13026;SDS011;6580;42.680;23.324;2023-02-08T10:27:05;10.67;;;9.03;;
13026;SDS011;6580;42.680;23.324;2023-02-08T10:29:49;11.23;;;8.60;;
13026;SDS011;6580;42.680;23.324;2023-02-08T10:32:31;11.53;;;9.30;;
13026;SDS011;6580;42.680;23.324;2023-02-08T10:35:10;14.40;;;10.47;;
13026;SDS011;6580;42.680;23.324;2023-02-08T10:37:39;15.20;;;10.90;;
13026;SDS011;6580;42.680;23.324;2023-02-08T10:40:18;12.67;;;9.37;;
13026;SDS011;6580;42.680;23.324;2023-02-08T10:42:55;10.73;;;9.27;;
13026;SDS011;6580;42.680;23.324;2023-02-08T10:45:29;11.73;;;9.23;;
13026;SDS011;6580;42.680;23.324;2023-02-08T10:48:02;12.73;;;9.70;;
13026;SDS011;6580;42.680;23.324;2023-02-08T10:50:36;11.03;;;9.27;;
13026;SDS011;6580;42.680;23.324;2023-02-08T10:53:05;11.67;;;9.10;;
13026;SDS011;6580;42.680;23.324;2023-02-08T10:55:40;10.17;;;8.30;;
13026;SDS011;6580;42.680;23.324;2023-02-08T10:58:09;11.43;;;9.20;;
13026;SDS011;6580;42.680;23.324;2023-02-08T11:00:39;13.87;;;10.50;;
13026;SDS011;6580;42.680;23.324;2023-02-08T11:03:12;13.53;;;9.73;;
13026;SDS011;6580;42.680;23.324;2023-02-08T11:05:42;11.60;;;9.97;;
13026;SDS011;6580;42.680;23.324;2023-02-08T11:08:11;13.03;;;9.63;;
13026;SDS011;6580;42.680;23.324;2023-02-08T11:10:40;12.77;;;9.47;;
13026;SDS011;6580;42.680;23.324;2023-02-08T11:13:14;12.43;;;10.33;;
13026;SDS011;6580;42.680;23.324;2023-02-08T11:15:44;12.87;;;9.60;;
13026;SDS011;6580;42.680;23.324;2023-02-08T11:18:16;13.67;;;10.37;;
13026;SDS011;6580;42.680;23.324;2023-02-08T11:20:48;11.97;;;9.37;;
13026;SDS011;6580;42.680;23.324;2023-02-08T11:23:21;13.27;;;9.77;;
13026;SDS011;6580;42.680;23.324;2023-02-08T11:25:50;13.10;;;9.60;;
13026;SDS011;6580;42.680;23.324;2023-02-08T11:28:24;12.43;;;9.57;;
13026;SDS011;6580;42.680;23.324;2023-02-08T11:30:54;11.03;;;9.03;;
13026;SDS011;6580;42.680;23.324;2023-02-08T11:33:26;12.50;;;9.97;;
13026;SDS011;6580;42.680;23.324;2023-02-08T11:35:55;13.73;;;9.37;;
13026;SDS011;6580;42.680;23.324;2023-02-08T11:38:26;13.57;;;9.93;;
13026;SDS011;6580;42.680;23.324;2023-02-08T11:40:53;12.63;;;8.40;;
13026;SDS011;6580;42.680;23.324;2023-02-08T11:43:24;10.73;;;9.03;;
13026;SDS011;6580;42.680;23.324;2023-02-08T11:45:52;13.80;;;9.40;;
13026;SDS011;6580;42.680;23.324;2023-02-08T11:48:21;11.00;;;9.30;;
13026;SDS011;6580;42.680;23.324;2023-02-08T11:50:52;12.90;;;9.50;;
13026;SDS011;6580;42.680;23.324;2023-02-08T11:53:24;12.83;;;9.00;;
13026;SDS011;6580;42.680;23.324;2023-02-08T11:56:00;9.87;;;8.27;;
13026;SDS011;6580;42.680;23.324;2023-02-08T11:58:29;12.20;;;9.20;;
13026;SDS011;6580;42.680;23.324;2023-02-08T12:00:57;12.80;;;9.40;;
13026;SDS011;6580;42.680;23.324;2023-02-08T12:03:27;10.57;;;8.30;;
13026;SDS011;6580;42.680;23.324;2023-02-08T12:06:01;11.43;;;8.40;;
13026;SDS011;6580;42.680;23.324;2023-02-08T12:08:44;13.03;;;9.30;;
13026;SDS011;6580;42.680;23.324;2023-02-08T12:11:21;12.37;;;8.63;;
13026;SDS011;6580;42.680;23.324;2023-02-08T12:16:50;11.20;;;8.10;;
13026;SDS011;6580;42.680;23.324;2023-02-08T12:19:36;11.37;;;8.37;;
13026;SDS011;6580;42.680;23.324;2023-02-08T12:22:20;10.87;;;8.57;;
13026;SDS011;6580;42.680;23.324;2023-02-08T12:24:52;12.57;;;8.50;;
13026;SDS011;6580;42.680;23.324;2023-02-08T12:27:29;12.33;;;9.37;;
13026;SDS011;6580;42.680;23.324;2023-02-08T12:30:08;11.87;;;8.30;;
13026;SDS011;6580;42.680;23.324;2023-02-08T12:32:56;10.63;;;7.47;;
13026;SDS011;6580;42.680;23.324;2023-02-08T12:38:51;9.50;;;6.33;;
13026;SDS011;6580;42.680;23.324;2023-02-08T12:41:51;9.77;;;6.87;;
13026;SDS011;6580;42.680;23.324;2023-02-08T12:44:30;9.03;;;6.37;;
13026;SDS011;6580;42.680;23.324;2023-02-08T12:47:08;8.10;;;6.70;;
13026;SDS011;6580;42.680;23.324;2023-02-08T12:49:59;10.53;;;7.10;;
13026;SDS011;6580;42.680;23.324;2023-02-08T12:52:35;8.97;;;6.37;;
13026;SDS011;6580;42.680;23.324;2023-02-08T12:55:05;7.23;;;5.87;;
13026;SDS011;6580;42.680;23.324;2023-02-08T12:57:40;8.33;;;5.90;;
13026;SDS011;6580;42.680;23.324;2023-02-08T13:00:15;7.17;;;5.47;;
13026;SDS011;6580;42.680;23.324;2023-02-08T13:02:45;7.43;;;6.27;;
13026;SDS011;6580;42.680;23.324;2023-02-08T13:05:21;7.40;;;5.27;;
13026;SDS011;6580;42.680;23.324;2023-02-08T13:07:53;6.80;;;6.07;;
13026;SDS011;6580;42.680;23.324;2023-02-08T13:10:27;9.07;;;6.10;;
13026;SDS011;6580;42.680;23.324;2023-02-08T13:13:00;21.07;;;8.90;;
13026;SDS011;6580;42.680;23.324;2023-02-08T13:15:35;8.17;;;6.53;;
13026;SDS011;6580;42.680;23.324;2023-02-08T13:18:09;7.73;;;6.03;;
13026;SDS011;6580;42.680;23.324;2023-02-08T13:20:42;6.70;;;5.63;;
13026;SDS011;6580;42.680;23.324;2023-02-08T13:23:14;6.87;;;5.50;;
13026;SDS011;6580;42.680;23.324;2023-02-08T13:25:48;6.07;;;5.27;;
13026;SDS011;6580;42.680;23.324;2023-02-08T13:28:19;5.90;;;5.00;;
13026;SDS011;6580;42.680;23.324;2023-02-08T13:30:51;7.93;;;5.93;;
13026;SDS011;6580;42.680;23.324;2023-02-08T13:33:25;6.70;;;5.80;;
13026;SDS011;6580;42.680;23.324;2023-02-08T13:35:57;7.13;;;5.97;;
13026;SDS011;6580;42.680;23.324;2023-02-08T13:38:26;9.30;;;6.77;;
13026;SDS011;6580;42.680;23.324;2023-02-08T13:41:05;10.60;;;6.77;;
13026;SDS011;6580;42.680;23.324;2023-02-08T13:43:41;7.10;;;5.70;;
13026;SDS011;6580;42.680;23.324;2023-02-08T13:46:12;7.70;;;6.27;;
13026;SDS011;6580;42.680;23.324;2023-02-08T13:48:40;8.63;;;6.73;;
13026;SDS011;6580;42.680;23.324;2023-02-08T13:54:22;8.23;;;6.57;;
13026;SDS011;6580;42.680;23.324;2023-02-08T13:56:50;8.23;;;6.47;;
13026;SDS011;6580;42.680;23.324;2023-02-08T13:59:27;9.33;;;7.43;;
13026;SDS011;6580;42.680;23.324;2023-02-08T14:02:20;9.10;;;6.67;;
13026;SDS011;6580;42.680;23.324;2023-02-08T14:04:51;8.27;;;6.73;;
13026;SDS011;6580;42.680;23.324;2023-02-08T14:07:36;6.93;;;6.23;;
13026;SDS011;6580;42.680;23.324;2023-02-08T14:10:12;8.93;;;6.27;;
13026;SDS011;6580;42.680;23.324;2023-02-08T14:12:49;7.77;;;6.30;;
13026;SDS011;6580;42.680;23.324;2023-02-08T14:15:29;9.17;;;6.40;;
13026;SDS011;6580;42.680;23.324;2023-02-08T14:17:58;8.03;;;6.90;;
13026;SDS011;6580;42.680;23.324;2023-02-08T14:20:34;7.40;;;6.50;;
13026;SDS011;6580;42.680;23.324;2023-02-08T14:23:04;9.87;;;6.63;;
13026;SDS011;6580;42.680;23.324;2023-02-08T14:25:45;9.57;;;7.07;;
13026;SDS011;6580;42.680;23.324;2023-02-08T14:28:24;8.50;;;6.83;;
13026;SDS011;6580;42.680;23.324;2023-02-08T14:30:57;8.53;;;6.50;;
13026;SDS011;6580;42.680;23.324;2023-02-08T14:33:27;9.13;;;7.13;;
13026;SDS011;6580;42.680;23.324;2023-02-08T14:35:58;10.60;;;8.07;;
13026;SDS011;6580;42.680;23.324;2023-02-08T14:38:30;9.67;;;7.17;;
13026;SDS011;6580;42.680;23.324;2023-02-08T14:41:00;9.43;;;6.80;;
13026;SDS011;6580;42.680;23.324;2023-02-08T14:43:30;13.53;;;7.97;;
13026;SDS011;6580;42.680;23.324;2023-02-08T14:49:09;10.13;;;7.73;;
13026;SDS011;6580;42.680;23.324;2023-02-08T14:51:38;9.60;;;8.03;;
13026;SDS011;6580;42.680;23.324;2023-02-08T14:54:14;11.13;;;7.67;;
13026;SDS011;6580;42.680;23.324;2023-02-08T14:56:50;10.67;;;7.50;;
13026;SDS011;6580;42.680;23.324;2023-02-08T14:59:23;10.07;;;7.13;;
13026;SDS011;6580;42.680;23.324;2023-02-08T15:01:53;12.60;;;7.40;;
13026;SDS011;6580;42.680;23.324;2023-02-08T15:04:23;9.37;;;7.70;;
13026;SDS011;6580;42.680;23.324;2023-02-08T15:07:01;10.10;;;8.20;;